Terminal Aerodrome Forecast
Issued by NWS Burlington, VT

Home | Current Version | Previous Version | Text Only | Print | Product List | Glossary On
Versions: 1 2 3 4 5 6 7 8 9 10 11 12 13 14 15 16 17 18 19 20 21
000
FTUS41 KBTV 190531
TAFBTV
TAF
KBTV 190531Z 1906/2006 17006KT P6SM SCT250
     FM191300 18013G20KT P6SM SCT200
     FM191500 18020G30KT P6SM SCT200
     FM191900 18017G26KT P6SM BKN100
     FM192100 18012G18KT P6SM OVC050
     FM200300 18011G17KT 5SM -RA BR OVC025=

USA.gov is the U.S. government's official web portal to all federal, state and local government web resources and services.